Time;durP1;ratioP1;P1;durP2;ratioP2;P2;SDS_P1;SDS_P2;PMS_P1;PMS_P2;Temp;Humidity;BMP_temperature;BMP_pressure;BME280_temperature;BME280_humidity;BME280_pressure;Samples;Min_cycle;Max_cycle;Signal;HPM_P1;HPM_P2
2022/04/22 00:00:46;;;;;;;0.60;0.60;;;;;;;12.00;100.00;95287.41;5133189;27;20514;-50
2022/04/22 00:03:16;;;;;;;6.53;0.47;;;;;;;12.17;100.00;95285.13;5133351;27;20856;-50
2022/04/22 00:05:45;;;;;;;1.53;1.43;;;;;;;12.13;100.00;95278.00;5133213;27;20433;-50
2022/04/22 00:08:14;;;;;;;0.40;0.30;;;;;;;12.23;100.00;95288.56;5133464;27;20419;-51
2022/04/22 00:13:25;;;;;;;0.83;0.80;;;;;;;12.30;100.00;95289.81;5132044;27;20521;-50
2022/04/22 00:15:53;;;;;;;0.50;0.40;;;;;;;12.17;100.00;95306.41;5133239;27;20823;-50
2022/04/22 00:18:24;;;;;;;0.40;0.40;;;;;;;11.56;100.00;95318.53;5132578;27;20414;-51
2022/04/22 00:20:52;;;;;;;0.60;0.60;;;;;;;10.83;100.00;95318.31;5132621;27;20458;-51
2022/04/22 00:23:21;;;;;;;0.30;0.20;;;;;;;10.64;100.00;95315.47;5132116;27;20516;-51
2022/04/22 00:25:49;;;;;;;0.40;0.40;;;;;;;10.51;100.00;95329.28;5132855;27;20518;-51
2022/04/22 00:28:18;;;;;;;0.40;0.40;;;;;;;10.53;100.00;95336.94;5133144;27;20482;-51
2022/04/22 00:30:47;;;;;;;0.87;0.87;;;;;;;11.12;100.00;95329.88;5132689;27;20519;-51
2022/04/22 00:33:16;;;;;;;0.50;0.50;;;;;;;11.39;100.00;95319.66;5132835;27;20454;-51
2022/04/22 00:35:46;;;;;;;0.30;0.20;;;;;;;11.39;100.00;95319.66;5132741;27;20505;-51
2022/04/22 00:38:14;;;;;;;1.07;0.30;;;;;;;11.57;100.00;95310.28;5132795;27;20509;-51
2022/04/22 00:40:43;;;;;;;0.60;0.40;;;;;;;11.42;100.00;95335.03;5132015;27;20477;-51
2022/04/22 00:43:16;;;;;;;0.73;0.50;;;;;;;11.43;100.00;95330.53;5132052;27;21051;-51
2022/04/22 00:45:45;;;;;;;0.30;0.30;;;;;;;11.40;100.00;95336.38;5132781;28;20443;-51
2022/04/22 00:48:13;;;;;;;1.67;0.80;;;;;;;11.49;100.00;95316.94;5132637;28;20466;-51
2022/04/22 00:50:42;;;;;;;1.03;0.43;;;;;;;10.69;100.00;95143.16;5132561;28;20523;-51
2022/04/22 00:53:12;;;;;;;0.57;0.57;;;;;;;11.26;100.00;95328.22;5132699;28;20514;-51
2022/04/22 00:55:43;;;;;;;1.30;1.20;;;;;;;10.73;100.00;95268.78;5132487;28;20462;-51
2022/04/22 00:58:12;;;;;;;0.90;0.67;;;;;;;11.42;100.00;95315.66;5132139;28;20514;-51
2022/04/22 01:00:41;;;;;;;1.10;1.10;;;;;;;11.75;100.00;95312.31;5132364;28;20521;-51
2022/04/22 01:03:10;;;;;;;0.63;0.40;;;;;;;11.05;100.00;95313.47;5132886;28;20426;-51
2022/04/22 01:11:27;;;;;;;0.70;0.70;;;;;;;11.52;100.00;95286.41;5127118;28;20506;-50
2022/04/22 01:13:55;;;;;;;0.50;0.50;;;;;;;10.59;100.00;95296.13;5132659;28;20423;-50
2022/04/22 01:16:24;;;;;;;0.93;0.93;;;;;;;10.30;100.00;95300.41;5132389;28;20422;-51
2022/04/22 01:18:53;;;;;;;0.97;0.80;;;;;;;10.31;100.00;95297.50;5132365;28;20853;-51
2022/04/22 01:21:23;;;;;;;1.23;1.23;;;;;;;10.52;100.00;95296.41;5132296;28;20434;-51
2022/04/22 01:23:51;;;;;;;1.03;1.03;;;;;;;10.35;100.00;95295.13;5132257;28;20448;-51
2022/04/22 01:26:20;;;;;;;0.50;0.47;;;;;;;10.29;100.00;95290.91;5132553;28;20505;-51
2022/04/22 01:28:49;;;;;;;1.80;1.17;;;;;;;10.63;100.00;95274.09;5132222;28;20518;-50
2022/04/22 01:31:18;;;;;;;0.37;0.27;;;;;;;11.25;100.00;95259.53;5132110;27;21000;-50
2022/04/22 01:33:46;;;;;;;4.20;1.90;;;;;;;11.48;100.00;95251.66;5135146;27;20433;-50
2022/04/22 01:36:16;;;;;;;2.00;0.60;;;;;;;11.65;100.00;95247.84;5136266;27;20510;-51
2022/04/22 01:38:46;;;;;;;2.20;2.10;;;;;;;11.48;100.00;95267.59;5136184;27;20418;-50
2022/04/22 01:41:14;;;;;;;2.43;0.60;;;;;;;11.16;100.00;95266.44;5136291;27;20456;-50
2022/04/22 01:43:43;;;;;;;0.70;0.63;;;;;;;11.25;100.00;95265.63;5135719;27;20569;-50
2022/04/22 01:46:12;;;;;;;0.40;0.40;;;;;;;11.24;100.00;95253.41;5135945;27;20462;-50
2022/04/22 01:48:40;;;;;;;0.40;0.30;;;;;;;11.37;100.00;95244.84;5135977;27;20840;-51
2022/04/22 01:51:09;;;;;;;0.40;0.40;;;;;;;11.37;100.00;95242.19;5136055;27;20498;-51
2022/04/22 01:53:37;;;;;;;0.53;0.50;;;;;;;11.72;100.00;95245.69;5135715;27;20807;-51
2022/04/22 01:56:07;;;;;;;0.40;0.30;;;;;;;11.66;100.00;95241.47;5135671;27;20518;-50
2022/04/22 01:58:35;;;;;;;5.83;0.60;;;;;;;11.69;100.00;95233.00;5135791;27;20462;-50
2022/04/22 02:01:04;;;;;;;0.40;0.30;;;;;;;11.55;100.00;95243.41;5135689;27;20474;-51
2022/04/22 02:03:32;;;;;;;0.83;0.80;;;;;;;11.66;100.00;95236.16;5135737;27;20426;-52
2022/04/22 02:06:01;;;;;;;1.60;1.47;;;;;;;11.51;100.00;95252.19;5135508;27;20513;-51
2022/04/22 02:08:31;;;;;;;0.40;0.30;;;;;;;11.06;100.00;95238.13;5135583;27;20954;-52
2022/04/22 02:10:59;;;;;;;0.40;0.40;;;;;;;11.19;100.00;95242.84;5135684;27;20462;-51
2022/04/22 02:13:29;;;;;;;0.43;0.43;;;;;;;11.35;100.00;95233.72;5135414;27;20502;-51
2022/04/22 02:15:57;;;;;;;0.30;0.20;;;;;;;11.81;100.00;95255.44;5135608;27;20887;-51
2022/04/22 02:18:25;;;;;;;0.50;0.40;;;;;;;11.70;100.00;95250.47;5135443;27;20903;-51
2022/04/22 02:20:54;;;;;;;0.30;0.20;;;;;;;11.54;100.00;95243.66;5135530;27;20462;-51
2022/04/22 02:23:22;;;;;;;0.40;0.30;;;;;;;11.58;100.00;95236.75;5135005;27;20441;-51
2022/04/22 02:25:51;;;;;;;0.30;0.20;;;;;;;11.61;100.00;95230.88;5134984;27;20458;-51
2022/04/22 02:28:33;;;;;;;0.30;0.20;;;;;;;11.68;100.00;95226.03;5134946;27;20458;-51
2022/04/22 02:31:05;;;;;;;0.40;0.40;;;;;;;11.71;100.00;95236.16;5135110;27;20451;-51
2022/04/22 02:33:35;;;;;;;0.40;0.30;;;;;;;11.53;100.00;95244.75;5135095;27;20942;-51
2022/04/22 02:36:06;;;;;;;1.27;0.80;;;;;;;11.59;100.00;95241.75;5134877;27;20513;-51
2022/04/22 02:38:35;;;;;;;0.40;0.30;;;;;;;11.59;100.00;95225.84;5135063;27;20427;-51
2022/04/22 02:46:37;;;;;;;0.60;0.60;;;;;;;11.75;100.00;95222.03;5134899;27;20509;-51
2022/04/22 02:49:05;;;;;;;0.37;0.27;;;;;;;11.76;100.00;95225.50;5134631;27;20419;-51
2022/04/22 02:51:34;;;;;;;0.70;0.70;;;;;;;11.76;100.00;95226.28;5134378;27;20488;-51
2022/04/22 02:54:02;;;;;;;0.30;0.20;;;;;;;11.63;100.00;95208.31;5134560;27;20423;-51
2022/04/22 02:56:31;;;;;;;0.30;0.30;;;;;;;11.69;100.00;95231.09;5134215;27;20526;-51
2022/04/22 02:59:00;;;;;;;0.97;0.90;;;;;;;11.17;100.00;95233.56;5134766;27;20480;-51
2022/04/22 03:01:28;;;;;;;0.40;0.30;;;;;;;11.28;100.00;95232.44;5134546;27;21001;-51
2022/04/22 03:03:59;;;;;;;0.40;0.30;;;;;;;11.42;100.00;95234.19;5134288;27;20425;-51
2022/04/22 03:06:27;;;;;;;0.30;0.30;;;;;;;11.53;100.00;95240.22;5134208;27;20429;-51
2022/04/22 03:08:56;;;;;;;0.73;0.43;;;;;;;11.38;100.00;95250.97;5134572;27;20433;-51
2022/04/22 03:11:25;;;;;;;1.80;1.77;;;;;;;11.39;100.00;95240.06;5133159;27;20509;-51
2022/04/22 03:13:53;;;;;;;0.30;0.30;;;;;;;11.45;100.00;95238.97;5134044;27;20470;-51
2022/04/22 03:16:25;;;;;;;0.40;0.40;;;;;;;11.29;100.00;95221.56;5133569;27;20454;-51
2022/04/22 03:18:56;;;;;;;0.30;0.20;;;;;;;11.43;100.00;95238.41;5134352;27;20497;-51
2022/04/22 03:21:26;;;;;;;1.47;1.37;;;;;;;10.94;100.00;95232.38;5134143;27;20523;-52
2022/04/22 03:23:56;;;;;;;0.40;0.30;;;;;;;11.21;100.00;95232.75;5134217;27;20433;-51
2022/04/22 03:26:24;;;;;;;0.30;0.30;;;;;;;11.07;100.00;95180.56;5134178;27;20526;-51
2022/04/22 03:28:57;;;;;;;0.50;0.30;;;;;;;11.42;100.00;95225.44;5134155;27;20423;-51
2022/04/22 03:31:25;;;;;;;0.40;0.40;;;;;;;11.48;100.00;95213.72;5133389;27;20525;-52
2022/04/22 03:33:54;;;;;;;0.50;0.40;;;;;;;11.21;100.00;95253.97;5134073;27;20494;-52
2022/04/22 03:36:22;;;;;;;0.30;0.30;;;;;;;11.19;100.00;95263.25;5133658;27;20513;-52
2022/04/22 03:38:52;;;;;;;0.43;0.40;;;;;;;11.37;100.00;95254.66;5133696;27;20920;-52
2022/04/22 03:41:21;;;;;;;4.67;1.30;;;;;;;11.46;100.00;95255.66;5133577;27;20430;-52
2022/04/22 03:43:49;;;;;;;0.30;0.30;;;;;;;11.45;100.00;95244.28;5133449;27;20516;-51
2022/04/22 03:46:18;;;;;;;0.40;0.40;;;;;;;11.56;100.00;95262.78;5133218;27;20529;-51
2022/04/22 03:48:46;;;;;;;0.50;0.40;;;;;;;11.58;100.00;95252.66;5133421;27;20430;-51
2022/04/22 03:51:15;;;;;;;0.30;0.30;;;;;;;11.29;100.00;95249.94;5132974;27;20873;-51
2022/04/22 03:53:44;;;;;;;1.33;1.30;;;;;;;11.16;100.00;95269.09;5133351;27;20490;-51
2022/04/22 03:59:11;;;;;;;9.83;0.57;;;;;;;11.58;100.00;95276.56;5068654;28;21114;-51
2022/04/22 04:01:39;;;;;;;0.43;0.40;;;;;;;11.34;100.00;95279.88;5118516;27;20529;-51
2022/04/22 04:04:08;;;;;;;4.00;0.70;;;;;;;11.37;100.00;95247.50;5133567;27;20426;-51
2022/04/22 04:06:36;;;;;;;0.70;0.60;;;;;;;11.64;100.00;95264.84;5131918;27;20525;-51
2022/04/22 04:17:25;;;;;;;0.40;0.30;;;;;;;11.72;100.00;95269.56;5132965;27;20434;-52
2022/04/22 04:25:24;;;;;;;0.93;0.93;;;;;;;11.88;100.00;95268.41;5132837;27;20470;-51
2022/04/22 04:27:54;;;;;;;0.50;0.30;;;;;;;11.99;100.00;95270.69;5133116;27;20446;-51
2022/04/22 04:30:23;;;;;;;0.40;0.33;;;;;;;11.94;100.00;95280.59;5132756;27;20522;-51
2022/04/22 04:32:53;;;;;;;7.07;0.97;;;;;;;11.98;100.00;95270.97;5132907;27;20494;-51
2022/04/22 04:35:21;;;;;;;4.43;0.87;;;;;;;11.39;100.00;95271.09;5132087;27;20843;-51
2022/04/22 04:37:49;;;;;;;1.63;1.53;;;;;;;10.65;100.00;95285.22;5132977;27;20501;-52
2022/04/22 04:40:18;;;;;;;0.53;0.40;;;;;;;10.33;100.00;95289.28;5131987;27;20425;-52
2022/04/22 04:42:46;;;;;;;0.70;0.70;;;;;;;10.65;100.00;95289.75;5132432;27;20550;-52
2022/04/22 04:45:16;;;;;;;1.60;1.60;;;;;;;11.14;100.00;95284.50;5131900;27;20434;-51
2022/04/22 04:47:44;;;;;;;1.13;1.03;;;;;;;10.76;100.00;95291.28;5132286;27;20478;-53
2022/04/22 04:50:13;;;;;;;1.80;1.80;;;;;;;11.07;100.00;95253.00;5131549;28;20510;-52
2022/04/22 04:52:42;;;;;;;0.60;0.60;;;;;;;11.54;100.00;95291.44;5132108;28;20557;-52
2022/04/22 04:55:13;;;;;;;1.37;1.07;;;;;;;11.14;100.00;95293.25;5132639;28;20458;-52
2022/04/22 04:57:42;;;;;;;2.80;1.90;;;;;;;11.30;100.00;95289.47;5132873;28;20437;-52
2022/04/22 05:00:19;;;;;;;4.00;1.73;;;;;;;11.45;100.00;95285.94;5133138;28;20438;-52
2022/04/22 05:02:48;;;;;;;2.87;0.50;;;;;;;11.66;100.00;95281.28;5132078;28;21004;-52
2022/04/22 05:05:16;;;;;;;0.50;0.50;;;;;;;11.83;100.00;95295.00;5131331;28;20470;-51
2022/04/22 05:07:50;;;;;;;0.63;0.53;;;;;;;11.99;100.00;95291.16;5135093;27;20517;-50
2022/04/22 05:10:19;;;;;;;1.33;1.23;;;;;;;9.72;100.00;94950.56;5136846;27;20462;-51
2022/04/22 05:12:48;;;;;;;0.50;0.50;;;;;;;11.97;100.00;95304.72;5135461;27;20901;-50
2022/04/22 05:15:19;;;;;;;0.40;0.30;;;;;;;11.96;100.00;95315.63;5136224;27;20469;-52
2022/04/22 05:17:48;;;;;;;0.73;0.73;;;;;;;11.84;100.00;95301.91;5136480;27;20867;-52
2022/04/22 05:20:18;;;;;;;7.90;1.80;;;;;;;11.55;100.00;95312.41;5136081;27;20975;-52
2022/04/22 05:22:47;;;;;;;1.43;1.43;;;;;;;11.78;100.00;95311.75;5136515;27;20472;-52
2022/04/22 05:25:17;;;;;;;0.50;0.50;;;;;;;11.86;100.00;95302.41;5136673;27;20451;-52
2022/04/22 05:27:45;;;;;;;1.57;1.47;;;;;;;11.23;100.00;95273.03;5136185;27;20992;-52
2022/04/22 05:33:03;;;;;;;1.77;1.20;;;;;;;10.73;100.00;95282.03;5135985;27;20476;-52
2022/04/22 05:35:32;;;;;;;2.73;2.67;;;;;;;10.62;100.00;95269.09;5136405;27;20445;-52
2022/04/22 05:38:02;;;;;;;1.43;1.33;;;;;;;10.56;100.00;95262.22;5135923;27;21027;-51
2022/04/22 05:40:32;;;;;;;1.23;1.13;;;;;;;10.16;100.00;95276.34;5135904;27;20462;-52
2022/04/22 05:43:00;;;;;;;0.43;0.43;;;;;;;10.24;100.00;95269.72;5135598;27;20482;-51
2022/04/22 05:45:29;;;;;;;0.50;0.40;;;;;;;10.43;100.00;95254.81;5135418;27;20458;-52
2022/04/22 05:47:58;;;;;;;0.80;0.80;;;;;;;10.91;100.00;95263.91;5135959;27;20427;-57
2022/04/22 05:50:29;;;;;;;1.40;1.33;;;;;;;11.19;100.00;95264.06;5135829;27;20517;-57
2022/04/22 05:52:58;;;;;;;0.80;0.80;;;;;;;11.29;100.00;95253.38;5135620;27;20916;-57
2022/04/22 05:55:28;;;;;;;0.47;0.47;;;;;;;10.97;100.00;95238.97;5135473;27;20951;-52
2022/04/22 05:57:59;;;;;;;0.50;0.50;;;;;;;11.26;100.00;95250.47;5135768;27;20434;-52
2022/04/22 06:00:31;;;;;;;1.90;0.30;;;;;;;11.33;100.00;95256.28;5135711;27;20513;-52
2022/04/22 06:03:01;;;;;;;4.67;0.73;;;;;;;11.40;100.00;95223.06;5135354;27;20500;-52
2022/04/22 06:05:32;;;;;;;0.80;0.80;;;;;;;11.40;100.00;95206.34;5135399;27;20427;-52
2022/04/22 06:10:53;;;;;;;0.40;0.37;;;;;;;11.56;100.00;95228.28;5135348;27;20473;-52
2022/04/22 06:13:21;;;;;;;1.33;1.30;;;;;;;11.86;100.00;95228.06;5134965;27;20939;-52
2022/04/22 06:15:50;;;;;;;0.60;0.60;;;;;;;11.80;100.00;95213.22;5135127;27;20510;-52
2022/04/22 06:18:18;;;;;;;1.13;0.60;;;;;;;11.61;100.00;95205.16;5134147;27;20970;-52
2022/04/22 06:20:50;;;;;;;0.50;0.50;;;;;;;11.75;100.00;95187.53;5135058;27;20461;-52
2022/04/22 06:23:18;;;;;;;0.93;0.93;;;;;;;11.90;100.00;95189.25;5134729;27;20433;-51
2022/04/22 06:25:48;;;;;;;3.33;3.13;;;;;;;11.45;100.00;95179.78;5135039;27;20954;-51
2022/04/22 06:28:17;;;;;;;0.90;0.90;;;;;;;11.56;100.00;95186.56;5134822;27;20462;-52
2022/04/22 06:30:46;;;;;;;0.40;0.30;;;;;;;12.17;100.00;95186.06;5134903;27;20422;-51
2022/04/22 06:33:18;;;;;;;0.60;0.60;;;;;;;12.54;100.00;95189.63;5135202;27;20430;-51
2022/04/22 06:35:48;;;;;;;2.20;0.70;;;;;;;12.57;100.00;95173.09;5134738;27;21228;-51
2022/04/22 06:38:18;;;;;;;4.47;1.30;;;;;;;12.40;100.00;95198.53;5134706;27;20908;-51
2022/04/22 06:46:20;;;;;;;2.00;0.47;;;;;;;12.24;100.00;95197.94;5134138;27;20435;-54
2022/04/22 06:48:50;;;;;;;0.67;0.50;;;;;;;12.05;100.00;95191.75;5133459;27;20920;-51
2022/04/22 06:51:23;;;;;;;0.67;0.60;;;;;;;12.66;100.00;95197.19;5134574;27;20462;-51
2022/04/22 06:53:52;;;;;;;0.70;0.70;;;;;;;13.25;100.00;95200.16;5134220;27;20466;-52
2022/04/22 06:56:26;;;;;;;1.17;1.03;;;;;;;13.22;100.00;95168.00;5134592;27;20993;-51
2022/04/22 06:58:55;;;;;;;1.50;1.03;;;;;;;13.30;100.00;95180.66;5134270;27;20437;-51
2022/04/22 07:01:24;;;;;;;0.50;0.40;;;;;;;14.14;100.00;95171.50;5134235;27;20415;-50
2022/04/22 07:04:11;;;;;;;0.80;0.60;;;;;;;14.41;100.00;95174.25;5133046;27;20473;-50
2022/04/22 07:06:42;;;;;;;0.60;0.60;;;;;;;14.95;100.00;95185.97;5133540;27;20454;-50
2022/04/22 07:09:11;;;;;;;0.50;0.40;;;;;;;14.97;100.00;95181.09;5134725;27;20429;-51
2022/04/22 07:11:42;;;;;;;1.77;0.90;;;;;;;14.87;100.00;95174.13;5134350;27;20427;-52
2022/04/22 07:14:12;;;;;;;1.00;0.90;;;;;;;15.37;100.00;95174.88;5133897;27;20470;-51
2022/04/22 07:16:48;;;;;;;2.50;1.30;;;;;;;15.75;99.50;95188.69;5133866;27;20480;-52
2022/04/22 07:19:17;;;;;;;0.90;0.90;;;;;;;16.09;97.08;95180.09;5134008;27;20422;-52
2022/04/22 07:21:47;;;;;;;0.60;0.60;;;;;;;16.64;90.05;95175.97;5133876;27;20426;-52
2022/04/22 07:24:16;;;;;;;1.40;1.40;;;;;;;16.20;89.72;95168.81;5133350;27;20473;-52
2022/04/22 07:26:45;;;;;;;0.50;0.40;;;;;;;16.70;91.15;95174.69;5133524;27;20514;-52
2022/04/22 07:29:15;;;;;;;0.80;0.57;;;;;;;16.33;94.60;95159.13;5133811;27;20468;-52
2022/04/22 07:31:44;;;;;;;1.03;0.80;;;;;;;17.32;92.23;95159.22;5133659;27;20927;-51
2022/04/22 07:34:13;;;;;;;0.50;0.40;;;;;;;17.27;83.39;95166.63;5132838;27;20466;-51
2022/04/22 07:36:43;;;;;;;0.97;0.80;;;;;;;17.88;83.15;95173.56;5133048;27;20441;-51
2022/04/22 07:39:13;;;;;;;0.47;0.47;;;;;;;18.33;77.85;95158.59;5133213;27;20968;-51
2022/04/22 07:41:44;;;;;;;1.30;1.20;;;;;;;18.50;83.01;95163.94;5132225;27;20427;-51
2022/04/22 07:47:08;;;;;;;0.83;0.77;;;;;;;17.99;72.79;95169.41;5091548;27;20530;-52
2022/04/22 07:49:37;;;;;;;16.10;0.50;;;;;;;17.68;80.09;95165.06;5133598;27;20446;-52
2022/04/22 07:52:06;;;;;;;0.73;0.73;;;;;;;18.19;77.32;95149.97;5133468;27;20488;-53
2022/04/22 07:54:35;;;;;;;1.40;0.67;;;;;;;17.31;81.06;95154.94;5133336;27;20458;-53
2022/04/22 07:57:04;;;;;;;0.40;0.30;;;;;;;17.43;72.93;95128.31;5133198;27;20505;-53
2022/04/22 07:59:33;;;;;;;0.40;0.30;;;;;;;18.05;75.91;95152.06;5133278;27;20433;-52
2022/04/22 08:02:03;;;;;;;0.60;0.60;;;;;;;17.86;70.15;95163.13;5133776;27;20514;-52
2022/04/22 08:04:32;;;;;;;0.50;0.50;;;;;;;18.58;70.11;95155.06;5133060;27;20521;-51
2022/04/22 08:07:02;;;;;;;0.40;0.30;;;;;;;19.08;64.76;95144.34;5133380;27;20434;-52
2022/04/22 08:09:52;;;;;;;0.60;0.60;;;;;;;17.89;66.58;95141.06;5132676;27;20969;-52
2022/04/22 08:12:21;;;;;;;1.30;0.70;;;;;;;18.29;66.42;95163.06;5132919;27;20495;-52
2022/04/22 08:14:57;;;;;;;0.40;0.30;;;;;;;17.42;74.87;95158.09;5132773;27;20462;-53
2022/04/22 08:17:26;;;;;;;0.47;0.40;;;;;;;17.72;78.30;95141.88;5132961;27;20466;-53
2022/04/22 08:19:54;;;;;;;0.40;0.40;;;;;;;18.93;72.17;95156.44;5132320;27;20414;-53
2022/04/22 08:22:23;;;;;;;0.40;0.30;;;;;;;19.46;66.77;95146.91;5133054;27;20916;-52
2022/04/22 08:24:53;;;;;;;1.00;1.00;;;;;;;19.95;60.09;95142.53;5133199;27;20877;-53
2022/04/22 08:27:22;;;;;;;0.50;0.40;;;;;;;19.09;62.91;95143.22;5132639;27;20969;-53
2022/04/22 08:29:50;;;;;;;0.50;0.40;;;;;;;18.97;61.59;95143.16;5132569;27;20418;-53
2022/04/22 08:32:18;;;;;;;0.40;0.30;;;;;;;20.04;62.57;95135.94;5132479;27;20931;-53
2022/04/22 08:34:47;;;;;;;1.73;0.57;;;;;;;20.81;52.26;95132.34;5132427;27;20501;-53
2022/04/22 08:37:15;;;;;;;0.57;0.50;;;;;;;20.95;53.15;95126.56;5132849;27;20521;-53
2022/04/22 08:39:43;;;;;;;0.80;0.70;;;;;;;20.64;51.87;95127.19;5132392;27;20517;-53
2022/04/22 08:42:15;;;;;;;0.83;0.83;;;;;;;20.38;52.17;95121.34;5132111;27;20857;-53
2022/04/22 08:45:03;;;;;;;0.40;0.40;;;;;;;19.91;55.51;95102.03;5132474;27;20440;-53
2022/04/22 08:50:19;;;;;;;0.60;0.40;;;;;;;20.61;56.30;95110.91;5132298;28;20517;-52
2022/04/22 08:52:54;;;;;;;0.40;0.30;;;;;;;21.88;52.81;95095.78;5132310;28;20514;-53
2022/04/22 08:55:24;;;;;;;1.00;1.00;;;;;;;22.37;50.38;95077.34;5131358;28;20466;-53
2022/04/22 08:57:55;;;;;;;0.70;0.70;;;;;;;22.31;49.35;95084.94;5132537;28;20422;-54
2022/04/22 09:00:27;;;;;;;0.57;0.53;;;;;;;21.96;48.90;95073.25;5132568;28;20426;-53
2022/04/22 09:02:56;;;;;;;0.50;0.43;;;;;;;22.46;46.69;95062.56;5132168;28;20434;-53
2022/04/22 09:05:26;;;;;;;2.20;0.57;;;;;;;22.28;49.96;95060.56;5132162;28;20434;-53
2022/04/22 09:07:55;;;;;;;0.40;0.40;;;;;;;23.08;46.51;95050.03;5132211;28;20434;-53
2022/04/22 09:10:24;;;;;;;1.60;1.00;;;;;;;22.84;42.94;95029.47;5132559;28;20530;-53
2022/04/22 09:12:55;;;;;;;0.50;0.30;;;;;;;23.33;43.31;95044.00;5131717;28;20788;-53
2022/04/22 09:15:26;;;;;;;1.77;0.50;;;;;;;23.24;43.96;95039.97;5131668;28;21022;-53
2022/04/22 09:17:57;;;;;;;0.57;0.57;;;;;;;22.87;48.12;95044.19;5131062;28;20484;-52
2022/04/22 09:20:31;;;;;;;0.40;0.30;;;;;;;24.12;43.07;95038.16;5132410;28;20453;-53
2022/04/22 09:22:59;;;;;;;0.60;0.53;;;;;;;24.32;41.65;95032.31;5131945;28;20458;-53
2022/04/22 09:25:28;;;;;;;0.40;0.30;;;;;;;24.20;43.00;95020.88;5132403;28;20515;-53
2022/04/22 09:28:10;;;;;;;0.80;0.80;;;;;;;23.44;42.95;95014.50;5132034;28;20426;-53
2022/04/22 09:30:41;;;;;;;1.27;0.40;;;;;;;22.96;46.09;95021.22;5132473;28;20893;-53
2022/04/22 09:33:10;;;;;;;0.60;0.60;;;;;;;23.98;43.22;95008.91;5132276;28;20438;-53
2022/04/22 09:44:16;;;;;;;0.40;0.30;;;;;;;22.52;42.26;94984.72;5068030;28;20551;-52
2022/04/22 09:46:44;;;;;;;1.07;0.87;;;;;;;22.19;43.38;95000.56;5119091;28;20573;-52
2022/04/22 09:49:39;;;;;;;0.80;0.50;;;;;;;22.65;40.89;94984.28;5131787;28;20513;-52
2022/04/22 09:52:08;;;;;;;0.60;0.47;;;;;;;22.16;40.56;94983.16;5131583;27;20526;-52
2022/04/22 09:54:38;;;;;;;2.20;0.60;;;;;;;22.99;41.51;94974.56;5134951;27;20449;-52
2022/04/22 09:57:26;;;;;;;0.90;0.87;;;;;;;22.46;39.40;94973.44;5135291;27;20441;-52
2022/04/22 09:59:56;;;;;;;0.50;0.30;;;;;;;22.49;39.69;94961.91;5135150;27;20423;-51
2022/04/22 10:02:27;;;;;;;0.40;0.30;;;;;;;24.27;37.49;94932.41;5135500;27;20454;-51
2022/04/22 10:04:58;;;;;;;0.40;0.30;;;;;;;25.33;33.37;94941.13;5134504;27;20924;-52
2022/04/22 10:07:32;;;;;;;0.43;0.40;;;;;;;23.63;35.24;94932.53;5135412;27;20505;-52
2022/04/22 10:10:04;;;;;;;0.70;0.50;;;;;;;23.30;35.14;94931.13;5135705;27;20427;-52
2022/04/22 10:12:37;;;;;;;0.70;0.70;;;;;;;22.45;34.46;94888.13;5135571;27;20461;-52
2022/04/22 10:15:09;;;;;;;0.40;0.30;;;;;;;22.69;35.88;94925.69;5135361;27;20501;-52
2022/04/22 10:17:40;;;;;;;0.40;0.30;;;;;;;22.72;34.94;94910.69;5135199;27;20434;-52
2022/04/22 10:20:09;;;;;;;3.27;1.03;;;;;;;22.86;35.49;94923.72;5135183;27;20414;-52
2022/04/22 10:22:39;;;;;;;1.53;1.43;;;;;;;23.20;35.60;94920.13;5135233;27;20521;-52
2022/04/22 10:25:09;;;;;;;1.00;0.90;;;;;;;23.37;35.21;94903.47;5135199;27;20466;-52
2022/04/22 10:27:39;;;;;;;0.57;0.57;;;;;;;22.73;36.35;94917.66;5134472;27;20478;-51
2022/04/22 10:30:11;;;;;;;0.40;0.30;;;;;;;22.88;36.48;94916.81;5135445;27;20461;-52
2022/04/22 10:32:41;;;;;;;0.60;0.60;;;;;;;22.82;36.30;94914.78;5134692;27;20522;-51
2022/04/22 10:35:10;;;;;;;2.97;2.87;;;;;;;22.65;36.58;94903.25;5134730;27;20444;-51
2022/04/22 10:37:41;;;;;;;0.80;0.50;;;;;;;22.68;36.37;94890.94;5134811;27;20462;-51
2022/04/22 10:40:19;;;;;;;1.10;0.80;;;;;;;22.84;35.82;94912.50;5134982;27;20473;-51
2022/04/22 10:42:47;;;;;;;0.40;0.30;;;;;;;22.44;36.06;94896.59;5134464;27;20551;-52
2022/04/22 10:48:19;;;;;;;0.40;0.30;;;;;;;22.31;35.90;94889.75;5134706;27;20470;-52
2022/04/22 10:50:59;;;;;;;0.60;0.40;;;;;;;22.57;37.42;94879.88;5134821;27;20457;-52
2022/04/22 10:53:29;;;;;;;0.50;0.50;;;;;;;21.85;35.55;94894.09;5134830;27;20490;-51
2022/04/22 10:56:32;;;;;;;0.70;0.60;;;;;;;22.89;34.52;94871.66;5134465;27;20600;-51
2022/04/22 10:59:33;;;;;;;0.47;0.33;;;;;;;22.57;32.02;94860.19;5134598;27;20984;-52
2022/04/22 11:02:31;;;;;;;0.40;0.40;;;;;;;22.69;31.44;94868.97;5070982;28;20505;-52
2022/04/22 11:05:39;;;;;;;2.50;0.37;;;;;;;22.36;32.85;94854.38;5133433;27;20438;-50
2022/04/22 11:08:08;;;;;;;0.40;0.30;;;;;;;22.72;31.33;94825.03;5131200;27;20481;-51
2022/04/22 11:11:01;;;;;;;0.43;0.40;;;;;;;22.93;31.37;94859.00;5133833;27;20953;-51
2022/04/22 11:13:32;;;;;;;0.40;0.30;;;;;;;23.31;29.50;94856.19;5134372;27;20488;-51
2022/04/22 11:16:01;;;;;;;0.50;0.30;;;;;;;23.09;29.91;94846.16;5134090;27;20604;-51
2022/04/22 11:18:31;;;;;;;0.40;0.40;;;;;;;23.01;29.53;94842.56;5134064;27;20419;-51
2022/04/22 11:21:03;;;;;;;0.40;0.30;;;;;;;22.40;29.26;94849.81;5134392;27;20806;-51
2022/04/22 11:23:37;;;;;;;0.47;0.37;;;;;;;22.58;29.79;94851.75;5134036;27;20915;-50
2022/04/22 11:26:06;;;;;;;0.30;0.30;;;;;;;22.95;29.97;94832.38;5134238;27;20838;-50
2022/04/22 11:28:36;;;;;;;3.03;0.47;;;;;;;23.07;29.83;94827.59;5133613;27;20430;-50
2022/04/22 11:31:07;;;;;;;0.93;0.60;;;;;;;23.47;30.82;94827.16;5133593;27;20426;-52
2022/04/22 11:33:46;;;;;;;0.40;0.40;;;;;;;22.77;29.99;94824.72;5133750;27;20422;-52
2022/04/22 11:36:14;;;;;;;2.77;0.30;;;;;;;22.93;30.37;94813.03;5132734;27;20510;-52
2022/04/22 11:38:47;;;;;;;0.50;0.50;;;;;;;22.92;30.44;94779.06;5133602;27;20465;-53
2022/04/22 11:41:16;;;;;;;0.43;0.33;;;;;;;23.18;30.91;94825.06;5133270;27;20431;-51
2022/04/22 11:43:45;;;;;;;0.40;0.40;;;;;;;23.29;30.46;94797.09;5133205;27;20558;-51
2022/04/22 11:46:14;;;;;;;0.30;0.20;;;;;;;22.98;31.13;94812.75;5132500;27;20520;-51
2022/04/22 11:48:49;;;;;;;0.60;0.37;;;;;;;23.32;31.96;94800.97;5133692;27;20476;-56
2022/04/22 11:51:20;;;;;;;0.40;0.30;;;;;;;23.38;30.63;94808.44;5133215;27;20887;-54
2022/04/22 11:53:50;;;;;;;0.40;0.30;;;;;;;23.07;31.43;94805.19;5132928;27;20430;-55
2022/04/22 11:56:20;;;;;;;0.40;0.40;;;;;;;22.83;31.26;94810.94;5133209;27;20481;-54
2022/04/22 11:58:55;;;;;;;0.40;0.30;;;;;;;22.59;32.13;94693.16;5133632;27;20509;-54
2022/04/22 12:08:00;;;;;;;0.40;0.30;;;;;;;23.47;32.84;94802.81;5132964;27;21033;-54
2022/04/22 12:10:03;;;;;;;0.60;0.60;;;;;;;23.03;32.27;94790.81;5132908;27;20482;-54
2022/04/22 12:12:31;;;;;;;0.50;0.50;;;;;;;23.30;32.64;94784.34;5133026;27;20517;-54
2022/04/22 12:15:01;;;;;;;0.47;0.43;;;;;;;24.06;31.82;94761.47;5133048;27;20479;-54
2022/04/22 12:17:30;;;;;;;5.33;0.77;;;;;;;23.67;32.05;94798.84;5132215;27;20418;-54
2022/04/22 12:20:00;;;;;;;1.23;0.40;;;;;;;23.79;32.26;94773.50;5133101;27;20458;-54
2022/04/22 12:22:32;;;;;;;0.40;0.30;;;;;;;23.31;33.38;94775.84;5133186;27;20423;-54
2022/04/22 12:25:07;;;;;;;0.80;0.80;;;;;;;23.74;33.15;94771.09;5133245;27;20509;-54
2022/04/22 12:27:35;;;;;;;0.40;0.33;;;;;;;23.54;32.77;94764.25;5132636;27;20556;-55
2022/04/22 12:30:05;;;;;;;0.80;0.80;;;;;;;23.75;32.84;94769.97;5132673;27;20446;-54
2022/04/22 12:32:36;;;;;;;0.57;0.57;;;;;;;23.47;33.56;94778.47;5133032;27;20416;-54
2022/04/22 12:35:16;;;;;;;0.40;0.30;;;;;;;23.86;33.32;94776.28;5132580;27;20460;-54
2022/04/22 12:37:53;;;;;;;0.43;0.43;;;;;;;23.77;33.27;94776.59;5132725;27;20430;-55
2022/04/22 12:40:22;;;;;;;0.67;0.40;;;;;;;23.65;33.23;94760.56;5131711;27;20983;-55
2022/04/22 12:42:51;;;;;;;0.50;0.50;;;;;;;23.05;33.78;94766.91;5132310;27;20478;-55
2022/04/22 12:53:50;;;;;;;0.60;0.40;;;;;;;23.45;34.15;94750.22;5132719;28;20422;-54
2022/04/22 12:56:25;;;;;;;0.40;0.40;;;;;;;23.83;33.86;94736.44;5132512;28;20447;-54
2022/04/22 12:58:56;;;;;;;0.50;0.50;;;;;;;23.60;33.16;94754.69;5132399;28;20418;-54